Time;durP1;ratioP1;P1;durP2;ratioP2;P2;SDS_P1;SDS_P2;PMS_P1;PMS_P2;Temp;Humidity;BMP_temperature;BMP_pressure;BME280_temperature;BME280_humidity;BME280_pressure;Samples;Min_cycle;Max_cycle;Signal;HPM_P1;HPM_P2
2024/03/03 00:02:02;;;;;;;0.10;0.10;;;;;;;4.69;73.17;98958.38;7364295;19;20044;-61
2024/03/03 00:04:27;;;;;;;0.00;0.00;;;;;;;4.69;72.75;98968.72;7363746;19;20027;-63
2024/03/03 00:06:53;;;;;;;0.10;0.10;;;;;;;4.63;72.83;98957.69;7363814;19;20121;-62
2024/03/03 00:09:20;;;;;;;0.10;0.10;;;;;;;4.65;72.77;98963.66;7366090;19;20007;-62
2024/03/03 00:11:46;;;;;;;0.10;0.10;;;;;;;4.60;72.51;98957.75;7364808;19;20010;-62
2024/03/03 00:14:12;;;;;;;0.10;0.10;;;;;;;4.60;72.69;98968.94;7366471;19;20010;-62
2024/03/03 00:16:43;;;;;;;0.00;0.00;;;;;;;4.60;72.75;98975.84;7365531;19;20051;-61
2024/03/03 00:19:09;;;;;;;0.05;0.05;;;;;;;4.55;73.04;98972.53;7361747;19;20013;-62
2024/03/03 00:21:35;;;;;;;0.10;0.10;;;;;;;4.55;72.80;98977.72;7365384;19;20011;-62
2024/03/03 00:24:06;;;;;;;0.00;0.00;;;;;;;4.53;72.66;98976.91;7367354;19;20018;-61
2024/03/03 00:26:33;;;;;;;0.10;0.10;;;;;;;4.51;73.01;98976.09;7365002;19;20565;-61
2024/03/03 00:28:58;;;;;;;0.10;0.10;;;;;;;4.49;73.10;98980.47;7366303;19;20015;-62
2024/03/03 00:31:24;;;;;;;0.10;0.10;;;;;;;4.42;72.88;98970.28;7363650;19;20024;-62
2024/03/03 00:33:49;;;;;;;0.10;0.10;;;;;;;4.34;72.94;98959.28;7366689;19;20059;-62
2024/03/03 00:36:15;;;;;;;0.10;0.10;;;;;;;4.47;73.00;98983.09;7361305;19;20501;-62
2024/03/03 00:38:40;;;;;;;0.10;0.10;;;;;;;4.48;73.30;98981.34;7366638;19;20534;-61
2024/03/03 00:41:05;;;;;;;0.10;0.10;;;;;;;4.49;73.75;98981.31;7366738;19;20010;-60
2024/03/03 00:43:32;;;;;;;0.10;0.10;;;;;;;4.46;73.43;98972.78;7363064;19;20850;-61
2024/03/03 00:45:57;;;;;;;0.10;0.10;;;;;;;4.51;73.18;98978.69;7361245;19;20483;-61
2024/03/03 00:48:22;;;;;;;0.10;0.10;;;;;;;4.52;73.41;98985.56;7367254;19;20042;-61
2024/03/03 00:50:48;;;;;;;0.10;0.10;;;;;;;4.53;73.48;98979.50;7359170;19;20597;-62
2024/03/03 00:53:13;;;;;;;0.00;0.00;;;;;;;4.54;73.23;98981.19;7364472;19;19999;-62
2024/03/03 00:55:41;;;;;;;0.05;0.05;;;;;;;4.55;73.56;98980.31;7363022;19;20032;-62
2024/03/03 00:58:07;;;;;;;0.10;0.10;;;;;;;4.57;73.57;98981.13;7358630;19;20010;-62
2024/03/03 01:00:32;;;;;;;0.10;0.10;;;;;;;4.59;73.85;98984.50;7364583;19;20481;-61
2024/03/03 01:02:58;;;;;;;0.05;0.05;;;;;;;4.61;73.76;98988.78;7362981;19;20003;-61
2024/03/03 01:05:23;;;;;;;0.10;0.10;;;;;;;4.63;73.70;98986.13;7363538;19;20014;-60
2024/03/03 01:07:49;;;;;;;0.00;0.00;;;;;;;4.66;73.96;98986.91;7361555;19;20486;-62
2024/03/03 01:10:14;;;;;;;0.10;0.10;;;;;;;4.68;74.13;98981.69;7366129;19;20020;-62
2024/03/03 01:12:39;;;;;;;0.00;0.00;;;;;;;4.71;73.98;98981.59;7359996;19;20006;-61
2024/03/03 01:15:05;;;;;;;0.10;0.10;;;;;;;4.71;73.99;98979.00;7363396;19;20359;-61
2024/03/03 01:17:31;;;;;;;0.10;0.10;;;;;;;4.72;73.51;98975.56;7365989;19;20007;-61
2024/03/03 01:19:56;;;;;;;0.10;0.10;;;;;;;4.75;74.02;98990.13;7354423;19;20014;-62
2024/03/03 01:22:22;;;;;;;0.10;0.10;;;;;;;4.75;74.11;98987.53;7367057;19;20105;-62
2024/03/03 01:24:47;;;;;;;0.10;0.10;;;;;;;4.73;74.01;98982.41;7365991;19;20002;-62
2024/03/03 01:27:12;;;;;;;0.00;0.00;;;;;;;4.74;73.90;98972.91;7363867;19;20025;-61
2024/03/03 01:29:38;;;;;;;0.00;0.00;;;;;;;4.75;74.00;98980.63;7364446;19;20816;-62
2024/03/03 01:32:04;;;;;;;0.10;0.10;;;;;;;4.76;73.68;98984.91;7371399;19;20006;-61
2024/03/03 01:34:30;;;;;;;0.05;0.05;;;;;;;4.78;73.98;98985.72;7364685;19;20014;-62
2024/03/03 01:36:55;;;;;;;0.08;0.08;;;;;;;4.79;74.06;98987.41;7365714;19;20050;-62
2024/03/03 01:39:20;;;;;;;0.00;0.00;;;;;;;4.71;74.07;98973.84;7360717;19;20006;-61
2024/03/03 01:41:47;;;;;;;0.10;0.10;;;;;;;4.75;74.48;98984.94;7360893;19;19994;-62
2024/03/03 01:44:13;;;;;;;0.10;0.10;;;;;;;4.85;74.33;98992.41;7364182;19;20680;-63
2024/03/03 01:46:39;;;;;;;0.00;0.00;;;;;;;4.86;74.17;98988.94;7363607;19;20074;-62
2024/03/03 01:49:11;;;;;;;0.00;0.00;;;;;;;4.92;74.51;98993.97;7372883;19;20078;-61
2024/03/03 01:51:38;;;;;;;0.00;0.00;;;;;;;4.79;74.28;98966.72;7374301;19;20022;-62
2024/03/03 01:54:05;;;;;;;0.10;0.10;;;;;;;4.96;74.43;98989.53;7371508;19;20014;-61
2024/03/03 01:56:32;;;;;;;0.00;0.00;;;;;;;5.00;74.76;98996.34;7371063;19;20006;-61
2024/03/03 01:59:00;;;;;;;0.00;0.00;;;;;;;5.02;74.57;98998.88;7363973;19;20424;-62
2024/03/03 02:01:27;;;;;;;0.10;0.10;;;;;;;5.07;74.87;98991.81;7368613;19;20123;-60
2024/03/03 02:03:54;;;;;;;0.00;0.00;;;;;;;5.05;74.37;98988.44;7370965;19;20764;-62
2024/03/03 02:06:24;;;;;;;0.00;0.00;;;;;;;5.09;74.42;98984.88;7374550;19;20569;-62
2024/03/03 02:08:50;;;;;;;0.10;0.10;;;;;;;5.15;74.80;98992.47;7371014;19;20016;-61
2024/03/03 02:11:16;;;;;;;0.10;0.10;;;;;;;5.12;74.87;98988.25;7372309;19;20010;-62
2024/03/03 02:13:41;;;;;;;0.00;0.00;;;;;;;5.17;74.66;98993.28;7370479;19;20085;-61
2024/03/03 02:16:06;;;;;;;0.10;0.10;;;;;;;5.17;74.63;98985.50;7367820;19;20082;-62
2024/03/03 02:18:32;;;;;;;0.10;0.10;;;;;;;5.27;74.62;98999.91;7367246;19;20018;-63
2024/03/03 02:20:57;;;;;;;0.00;0.00;;;;;;;5.29;74.72;99003.28;7373345;19;20014;-61
2024/03/03 02:23:23;;;;;;;0.00;0.00;;;;;;;5.31;74.57;99001.50;7356359;19;20009;-62
2024/03/03 02:25:48;;;;;;;0.00;0.00;;;;;;;5.33;74.73;99004.91;7371993;19;20014;-62
2024/03/03 02:28:14;;;;;;;0.00;0.00;;;;;;;5.19;74.62;98970.81;7372070;19;20849;-62
2024/03/03 02:30:40;;;;;;;0.00;0.00;;;;;;;5.38;74.71;98997.00;7372522;19;20060;-61
2024/03/03 02:33:05;;;;;;;0.10;0.10;;;;;;;5.39;74.75;98999.53;7362645;19;20018;-61
2024/03/03 02:35:30;;;;;;;0.10;0.10;;;;;;;5.41;74.32;99002.94;7368567;19;20022;-62
2024/03/03 02:37:56;;;;;;;0.10;0.10;;;;;;;5.37;74.11;98995.28;7368827;19;20011;-62
2024/03/03 02:40:22;;;;;;;0.10;0.10;;;;;;;5.38;74.29;99003.03;7370336;19;20030;-62
2024/03/03 02:42:48;;;;;;;0.08;0.08;;;;;;;5.42;74.46;99004.66;7373515;19;20018;-61
2024/03/03 02:45:13;;;;;;;0.10;0.10;;;;;;;5.42;74.09;99004.66;7369377;19;20010;-61
2024/03/03 02:47:39;;;;;;;0.10;0.10;;;;;;;5.42;74.60;98999.47;7371479;19;20455;-62
2024/03/03 02:50:05;;;;;;;0.10;0.10;;;;;;;5.43;74.42;99006.34;7368681;19;20535;-62
2024/03/03 02:52:30;;;;;;;0.10;0.10;;;;;;;5.44;74.25;99007.19;7371987;19;21050;-62
2024/03/03 02:54:56;;;;;;;0.10;0.10;;;;;;;5.44;74.72;99007.19;7364225;19;20093;-62
2024/03/03 02:57:21;;;;;;;0.00;0.00;;;;;;;5.45;74.39;99009.72;7366495;19;20018;-62
2024/03/03 02:59:47;;;;;;;0.10;0.10;;;;;;;5.46;74.34;99005.38;7358371;19;20074;-62
2024/03/03 03:02:12;;;;;;;0.10;0.10;;;;;;;5.46;74.31;99008.81;7368731;19;20025;-62
2024/03/03 03:04:37;;;;;;;0.10;0.10;;;;;;;5.45;74.45;99004.53;7369063;19;20042;-62
2024/03/03 03:07:03;;;;;;;0.00;0.00;;;;;;;5.44;74.55;99005.44;7367919;19;20018;-62
2024/03/03 03:09:30;;;;;;;0.10;0.10;;;;;;;5.24;74.20;98968.09;7370240;19;20085;-62
2024/03/03 03:11:55;;;;;;;0.10;0.10;;;;;;;5.45;74.29;99004.53;7369560;19;20014;-61
2024/03/03 03:14:21;;;;;;;0.10;0.10;;;;;;;5.47;74.59;99013.13;7368192;19;20021;-61
2024/03/03 03:16:46;;;;;;;0.05;0.05;;;;;;;5.43;74.38;99003.75;7367588;19;20815;-62
2024/03/03 03:19:12;;;;;;;0.10;0.10;;;;;;;5.46;74.31;99001.06;7364241;19;20066;-61
2024/03/03 03:21:37;;;;;;;0.10;0.10;;;;;;;5.50;74.34;99011.31;7367553;19;20015;-62
2024/03/03 03:24:03;;;;;;;0.10;0.10;;;;;;;5.50;74.46;99011.31;7370645;19;20002;-62
2024/03/03 03:26:28;;;;;;;0.10;0.10;;;;;;;5.52;74.72;99004.34;7368418;19;20025;-62
2024/03/03 03:28:54;;;;;;;0.10;0.10;;;;;;;5.52;74.69;98999.19;7369595;19;20014;-64
2024/03/03 03:31:20;;;;;;;0.10;0.10;;;;;;;5.54;74.51;99007.75;7365184;19;20033;-62
2024/03/03 03:33:45;;;;;;;0.10;0.10;;;;;;;5.57;74.45;99007.66;7368607;19;20018;-62
2024/03/03 03:36:11;;;;;;;0.10;0.10;;;;;;;5.57;74.38;99012.84;7366719;19;20014;-62
2024/03/03 03:38:37;;;;;;;0.05;0.05;;;;;;;5.46;74.68;98995.03;7369475;19;20483;-62
2024/03/03 03:41:05;;;;;;;0.10;0.10;;;;;;;5.62;74.73;99026.50;7366560;19;20014;-62
2024/03/03 03:43:31;;;;;;;0.10;0.10;;;;;;;5.51;74.69;99007.84;7370499;19;20041;-62
2024/03/03 03:45:57;;;;;;;0.10;0.10;;;;;;;5.64;74.62;99028.16;7365690;19;20442;-62
2024/03/03 03:48:24;;;;;;;0.10;0.10;;;;;;;5.63;74.42;99023.03;7368764;19;20022;-62
2024/03/03 03:50:49;;;;;;;0.10;0.10;;;;;;;5.66;74.35;99025.50;7365219;19;20103;-62
2024/03/03 03:53:15;;;;;;;0.05;0.05;;;;;;;5.66;74.70;99018.59;7364809;19;20104;-62
2024/03/03 03:55:40;;;;;;;0.10;0.10;;;;;;;5.67;74.88;99025.47;7365080;19;20102;-63
2024/03/03 03:58:06;;;;;;;0.05;0.05;;;;;;;5.70;74.41;99027.13;7370565;19;20351;-62
2024/03/03 04:00:32;;;;;;;0.10;0.10;;;;;;;5.71;74.65;99028.81;7364642;19;20351;-62
2024/03/03 04:02:58;;;;;;;0.10;0.10;;;;;;;5.70;74.79;99019.34;7367122;19;20479;-62
2024/03/03 04:05:23;;;;;;;0.00;0.00;;;;;;;5.72;74.58;99022.72;7365352;19;20010;-62
2024/03/03 04:07:49;;;;;;;0.10;0.10;;;;;;;5.74;74.52;99031.31;7364106;19;20851;-61
2024/03/03 04:10:17;;;;;;;0.00;0.00;;;;;;;5.75;74.23;99027.84;7363254;19;20010;-62
2024/03/03 04:12:43;;;;;;;0.10;0.10;;;;;;;5.73;74.38;99030.47;7361400;19;20014;-62
2024/03/03 04:15:09;;;;;;;0.00;0.00;;;;;;;5.76;74.87;99034.72;7352757;19;20011;-62
2024/03/03 04:17:35;;;;;;;0.10;0.10;;;;;;;5.76;74.80;99029.53;7341806;19;20034;-62
2024/03/03 04:20:01;;;;;;;0.00;0.00;;;;;;;5.78;74.73;99034.66;7365688;19;20502;-62
2024/03/03 04:22:26;;;;;;;0.10;0.10;;;;;;;5.77;74.67;99039.00;7365213;19;20002;-62
2024/03/03 04:24:51;;;;;;;0.10;0.10;;;;;;;5.79;74.26;99029.44;7360700;19;20090;-62
2024/03/03 04:27:17;;;;;;;0.10;0.10;;;;;;;5.58;74.19;98993.84;7357932;19;20003;-61
2024/03/03 04:29:46;;;;;;;0.10;0.10;;;;;;;5.81;74.32;99035.41;7366762;19;20074;-63
2024/03/03 04:32:11;;;;;;;0.10;0.10;;;;;;;5.79;74.70;99039.81;7361018;19;20031;-62
2024/03/03 04:34:39;;;;;;;0.00;0.00;;;;;;;5.80;74.46;99041.50;7366573;19;20709;-62
2024/03/03 04:37:06;;;;;;;0.05;0.05;;;;;;;5.66;74.49;99022.94;7359851;19;20054;-62
2024/03/03 04:39:33;;;;;;;0.10;0.10;;;;;;;5.79;74.29;99050.16;7367332;19;20034;-61
2024/03/03 04:41:59;;;;;;;0.10;0.10;;;;;;;5.72;74.30;99041.72;7361772;19;20043;-62
2024/03/03 04:44:24;;;;;;;0.10;0.10;;;;;;;5.60;74.30;99026.53;7369335;19;20394;-61
2024/03/03 04:46:50;;;;;;;0.10;0.10;;;;;;;5.77;74.32;99046.75;7358777;19;20018;-64
2024/03/03 04:49:15;;;;;;;0.10;0.10;;;;;;;5.77;74.53;99049.34;7368053;19;20047;-63
2024/03/03 04:51:41;;;;;;;0.10;0.10;;;;;;;5.77;74.42;99051.09;7366305;19;20081;-62
2024/03/03 04:54:06;;;;;;;0.10;0.10;;;;;;;5.75;74.40;99058.91;7366145;19;20014;-62
2024/03/03 04:56:32;;;;;;;0.10;0.10;;;;;;;5.71;74.35;99059.91;7356979;19;20047;-60
2024/03/03 04:58:58;;;;;;;0.10;0.10;;;;;;;5.69;74.34;99059.94;7365260;19;20585;-61
2024/03/03 05:01:23;;;;;;;0.10;0.10;;;;;;;5.69;74.53;99066.88;7364884;19;20018;-61
2024/03/03 05:03:49;;;;;;;0.10;0.10;;;;;;;5.62;74.84;99062.75;7361864;19;20027;-62
2024/03/03 05:06:14;;;;;;;0.00;0.00;;;;;;;5.66;74.53;99069.53;7366736;19;20346;-62
2024/03/03 05:08:40;;;;;;;0.10;0.10;;;;;;;5.63;74.44;99074.81;7366131;19;20502;-61
2024/03/03 05:11:06;;;;;;;0.00;0.00;;;;;;;5.61;74.80;99080.03;7364393;19;20019;-62
2024/03/03 05:13:32;;;;;;;0.10;0.10;;;;;;;5.49;74.83;99062.25;7366183;19;21459;-62
2024/03/03 05:15:58;;;;;;;0.10;0.10;;;;;;;5.62;74.94;99086.03;7365797;19;20018;-61
2024/03/03 05:18:26;;;;;;;0.10;0.10;;;;;;;5.52;75.12;99075.09;7366114;19;20026;-62
2024/03/03 05:20:52;;;;;;;0.10;0.10;;;;;;;5.62;74.59;99093.81;7357062;19;20015;-61
2024/03/03 05:23:18;;;;;;;0.00;0.00;;;;;;;5.64;75.06;99102.41;7366254;19;20041;-61
2024/03/03 05:25:44;;;;;;;0.10;0.10;;;;;;;5.49;74.80;99080.38;7360864;19;20712;-62
2024/03/03 05:28:10;;;;;;;0.10;0.10;;;;;;;5.63;74.73;99095.53;7368293;19;20042;-62
2024/03/03 05:30:38;;;;;;;0.10;0.10;;;;;;;5.68;74.77;99094.50;7354863;19;20018;-61
2024/03/03 05:33:04;;;;;;;0.10;0.10;;;;;;;5.69;74.94;99100.53;7363829;19;20026;-62
2024/03/03 05:35:30;;;;;;;0.10;0.10;;;;;;;5.65;74.67;99098.91;7362742;19;20233;-61
2024/03/03 05:37:55;;;;;;;0.10;0.10;;;;;;;5.74;74.55;99109.03;7366452;19;20990;-62
2024/03/03 05:40:21;;;;;;;0.10;0.10;;;;;;;5.75;75.12;99115.91;7362292;19;20006;-61
2024/03/03 05:42:46;;;;;;;0.10;0.10;;;;;;;5.77;74.84;99119.28;7369344;19;20014;-61
2024/03/03 05:45:11;;;;;;;0.00;0.00;;;;;;;5.77;74.58;99129.63;7356425;19;20802;-61
2024/03/03 05:47:37;;;;;;;0.10;0.10;;;;;;;5.78;74.81;99133.94;7363248;19;20015;-62
2024/03/03 05:50:02;;;;;;;0.10;0.10;;;;;;;5.79;74.95;99127.88;7359434;19;20021;-61
2024/03/03 05:52:28;;;;;;;0.00;0.00;;;;;;;5.81;74.82;99141.63;7360029;19;20084;-62
2024/03/03 05:54:53;;;;;;;0.10;0.10;;;;;;;5.81;74.63;99139.03;7360337;19;20011;-62
2024/03/03 05:57:18;;;;;;;0.00;0.00;;;;;;;5.82;74.93;99140.72;7364403;19;20033;-62
2024/03/03 05:59:45;;;;;;;0.10;0.10;;;;;;;5.80;74.48;99139.09;7368507;19;20773;-61
2024/03/03 06:02:10;;;;;;;0.05;0.05;;;;;;;5.84;74.77;99136.38;7364537;19;20521;-62
2024/03/03 06:04:36;;;;;;;0.10;0.10;;;;;;;5.84;74.83;99141.53;7360748;19;20010;-61
2024/03/03 06:07:04;;;;;;;0.10;0.10;;;;;;;5.83;74.72;99145.03;7367109;19;20030;-61
2024/03/03 06:09:30;;;;;;;0.10;0.10;;;;;;;5.84;74.38;99146.72;7362893;19;20006;-61
2024/03/03 06:11:58;;;;;;;0.10;0.10;;;;;;;5.83;74.56;99150.22;7364486;19;20033;-62
2024/03/03 06:14:23;;;;;;;0.05;0.05;;;;;;;5.83;74.75;99150.22;7357602;19;20041;-61
2024/03/03 06:16:49;;;;;;;0.00;0.00;;;;;;;5.84;74.56;99156.25;7364953;19;20896;-62
2024/03/03 06:19:14;;;;;;;0.00;0.00;;;;;;;5.83;74.37;99165.75;7361500;19;20649;-62
2024/03/03 06:21:41;;;;;;;0.10;0.10;;;;;;;5.84;74.44;99167.44;7362147;19;20017;-61
2024/03/03 06:24:07;;;;;;;0.10;0.10;;;;;;;5.83;74.51;99170.94;7363790;19;20010;-62
2024/03/03 06:26:34;;;;;;;0.05;0.05;;;;;;;5.83;74.62;99170.94;7364770;19;20010;-62
2024/03/03 06:29:00;;;;;;;0.10;0.10;;;;;;;5.83;74.79;99170.94;7362545;19;20013;-61
2024/03/03 06:31:25;;;;;;;0.10;0.10;;;;;;;5.83;74.53;99175.25;7358487;19;20038;-62
2024/03/03 06:33:51;;;;;;;0.10;0.10;;;;;;;5.82;74.79;99176.13;7369805;19;20018;-61
2024/03/03 06:36:20;;;;;;;0.10;0.10;;;;;;;5.72;74.44;99152.22;7368237;19;20014;-61
2024/03/03 06:38:46;;;;;;;0.00;0.00;;;;;;;5.83;74.43;99170.94;7360877;19;20015;-62
2024/03/03 06:41:13;;;;;;;0.10;0.10;;;;;;;5.84;74.72;99177.81;7370449;19;20025;-61
2024/03/03 06:43:38;;;;;;;0.10;0.10;;;;;;;5.85;74.38;99178.66;7370811;19;20014;-63
2024/03/03 06:46:04;;;;;;;0.08;0.08;;;;;;;5.83;74.82;99189.06;7368376;19;20122;-61
2024/03/03 06:48:31;;;;;;;0.10;0.10;;;;;;;5.84;74.41;99195.94;7369759;19;20499;-62
2024/03/03 06:50:57;;;;;;;0.05;0.05;;;;;;;5.83;74.41;99202.03;7360487;19;20018;-62
2024/03/03 06:53:22;;;;;;;0.08;0.08;;;;;;;5.81;74.46;99203.78;7370992;19;20014;-62
2024/03/03 06:55:47;;;;;;;0.10;0.10;;;;;;;5.77;74.39;99196.97;7369227;19;20011;-61
2024/03/03 06:58:13;;;;;;;0.10;0.10;;;;;;;5.82;74.63;99221.03;7362477;19;20042;-62
2024/03/03 07:00:38;;;;;;;0.00;0.00;;;;;;;5.83;74.78;99222.75;7370162;19;20014;-62
2024/03/03 07:05:32;;;;;;;0.08;0.08;;;;;;;5.82;74.46;99228.78;7371396;19;20021;-61
2024/03/03 07:07:58;;;;;;;0.10;0.10;;;;;;;5.75;74.46;99234.19;7367521;19;20010;-62
2024/03/03 07:10:23;;;;;;;0.00;0.00;;;;;;;5.82;74.47;99243.47;7368807;19;20018;-61
2024/03/03 07:12:49;;;;;;;0.00;0.00;;;;;;;5.81;74.38;99229.69;7367714;19;20017;-61
2024/03/03 07:15:14;;;;;;;0.10;0.10;;;;;;;5.78;74.63;99226.31;7331564;19;20017;-60
2024/03/03 07:17:41;;;;;;;0.05;0.05;;;;;;;5.61;74.43;99195.69;7367284;19;20064;-61
2024/03/03 07:20:07;;;;;;;0.10;0.10;;;;;;;5.81;74.41;99234.88;7364751;19;20510;-62
2024/03/03 07:22:34;;;;;;;0.10;0.10;;;;;;;5.79;74.35;99247.03;7371086;19;20137;-62
2024/03/03 07:25:02;;;;;;;0.10;0.10;;;;;;;5.79;74.71;99247.03;7362113;19;20018;-62
2024/03/03 07:27:27;;;;;;;;;;;;;;;5.81;74.03;99265.94;7370335;19;20035;-62
2024/03/03 07:30:18;;;;;;;0.10;0.10;;;;;;;5.80;74.21;99266.00;7371677;19;20231;-61
2024/03/03 07:32:44;;;;;;;0.00;0.00;;;;;;;5.75;74.36;99266.13;7365240;19;20584;-61
2024/03/03 07:35:09;;;;;;;0.10;0.10;;;;;;;5.72;74.02;99261.84;7365442;19;20026;-61
2024/03/03 07:37:35;;;;;;;0.10;0.10;;;;;;;5.70;74.20;99268.81;7369095;19;20002;-61
2024/03/03 07:40:00;;;;;;;0.10;0.10;;;;;;;5.62;74.04;99254.38;7370574;19;20458;-61
2024/03/03 07:42:25;;;;;;;0.10;0.10;;;;;;;5.66;74.05;99271.53;7365240;19;20009;-61
2024/03/03 07:44:51;;;;;;;0.10;0.10;;;;;;;5.56;74.08;99270.06;7360442;19;20018;-61
2024/03/03 07:47:16;;;;;;;0.10;0.10;;;;;;;5.62;74.58;99288.03;7368140;19;20102;-61
2024/03/03 07:49:42;;;;;;;0.10;0.10;;;;;;;5.60;74.22;99287.22;7357970;19;20033;-62
2024/03/03 07:52:08;;;;;;;0.00;0.00;;;;;;;5.58;74.45;99289.03;7364290;19;20022;-61
2024/03/03 07:54:34;;;;;;;0.05;0.05;;;;;;;5.58;74.33;99294.19;7361654;19;20031;-62
2024/03/03 07:56:59;;;;;;;0.10;0.10;;;;;;;5.59;74.79;99301.06;7365246;19;19998;-61
2024/03/03 07:59:25;;;;;;;0.00;0.00;;;;;;;5.57;74.28;99308.00;7366549;19;20862;-62
2024/03/03 08:01:50;;;;;;;0.10;0.10;;;;;;;5.61;74.78;99314.81;7362988;19;20011;-62
2024/03/03 08:04:16;;;;;;;0.10;0.10;;;;;;;5.50;74.66;99303.88;7365425;19;20030;-62
2024/03/03 08:06:42;;;;;;;0.10;0.10;;;;;;;5.65;74.48;99337.16;7367841;19;20045;-61
2024/03/03 08:09:09;;;;;;;0.10;0.10;;;;;;;5.67;74.37;99340.56;7364522;19;20006;-62
2024/03/03 08:11:35;;;;;;;0.10;0.10;;;;;;;5.59;74.49;99330.41;7365057;19;20014;-62
2024/03/03 08:14:02;;;;;;;0.03;0.03;;;;;;;5.71;74.64;99344.78;7365519;19;20050;-62
2024/03/03 08:16:36;;;;;;;0.10;0.10;;;;;;;5.71;74.50;99342.19;7364063;19;20725;-62
2024/03/03 08:19:03;;;;;;;0.10;0.10;;;;;;;5.73;74.30;99345.63;7362008;19;20015;-61
2024/03/03 08:21:29;;;;;;;0.08;0.08;;;;;;;5.73;74.65;99349.06;7352980;19;20011;-62
2024/03/03 08:23:54;;;;;;;0.00;0.00;;;;;;;5.74;74.43;99347.31;7367828;19;20581;-61
2024/03/03 08:26:20;;;;;;;0.10;0.10;;;;;;;5.76;74.81;99350.69;7366296;19;20541;-62
2024/03/03 08:28:46;;;;;;;0.00;0.00;;;;;;;5.78;74.50;99348.94;7366590;19;20018;-61
2024/03/03 08:31:11;;;;;;;0.10;0.10;;;;;;;5.83;74.86;99356.56;7366812;19;20015;-62
2024/03/03 08:33:37;;;;;;;0.10;0.10;;;;;;;5.86;74.77;99357.34;7364694;19;20106;-62
2024/03/03 08:36:03;;;;;;;0.10;0.10;;;;;;;5.92;74.53;99359.81;7366972;19;20014;-61
2024/03/03 08:38:29;;;;;;;0.10;0.10;;;;;;;5.99;74.93;99352.75;7358568;19;19998;-61
2024/03/03 08:40:55;;;;;;;0.00;0.00;;;;;;;6.05;74.51;99362.13;7368628;19;20025;-62
2024/03/03 08:43:20;;;;;;;0.10;0.10;;;;;;;6.09;74.49;99368.91;7359330;19;20003;-61
2024/03/03 08:45:46;;;;;;;0.10;0.10;;;;;;;6.13;74.75;99366.22;7363782;19;20013;-61
2024/03/03 08:48:11;;;;;;;0.10;0.10;;;;;;;6.17;74.56;99369.56;7365391;19;20083;-61
2024/03/03 08:50:36;;;;;;;0.00;0.00;;;;;;;6.22;74.81;99375.47;7360178;19;20418;-62
2024/03/03 08:53:04;;;;;;;0.10;0.10;;;;;;;6.29;74.54;99374.44;7366690;19;20001;-61
2024/03/03 08:55:29;;;;;;;0.00;0.00;;;;;;;6.33;74.28;99376.03;7365558;19;20010;-62
2024/03/03 08:57:55;;;;;;;0.10;0.10;;;;;;;6.38;74.48;99375.91;7360844;19;19994;-62
2024/03/03 09:00:20;;;;;;;0.10;0.10;;;;;;;6.42;74.22;99388.75;7364814;19;20018;-61
2024/03/03 09:02:46;;;;;;;0.10;0.10;;;;;;;6.47;74.10;99393.81;7365370;19;20013;-62
2024/03/03 09:05:11;;;;;;;0.10;0.10;;;;;;;6.52;74.06;99398.88;7360324;19;20030;-62
2024/03/03 09:07:39;;;;;;;0.10;0.10;;;;;;;6.55;73.88;99397.06;7361575;19;20021;-62
2024/03/03 09:10:05;;;;;;;0.10;0.10;;;;;;;6.55;74.27;99389.28;7367465;19;20019;-62
2024/03/03 09:12:31;;;;;;;0.05;0.05;;;;;;;6.62;74.28;99396.00;7361842;19;20015;-62
2024/03/03 09:14:56;;;;;;;0.10;0.10;;;;;;;6.69;73.95;99407.03;7353045;19;21002;-61
2024/03/03 09:17:22;;;;;;;0.08;0.08;;;;;;;6.64;74.46;99380.38;7363186;19;20074;-61
2024/03/03 09:19:47;;;;;;;0.08;0.08;;;;;;;6.87;74.00;99406.53;7359666;19;20002;-62
2024/03/03 09:22:12;;;;;;;0.10;0.10;;;;;;;6.99;73.94;99411.41;7365383;19;20010;-62
2024/03/03 09:24:46;;;;;;;0.05;0.05;;;;;;;7.17;73.83;99424.72;7360641;19;20000;-62
2024/03/03 09:27:11;;;;;;;0.10;0.10;;;;;;;7.27;73.84;99437.41;7359693;19;20066;-61
2024/03/03 09:29:36;;;;;;;0.10;0.10;;;;;;;7.36;73.60;99436.28;7361118;19;20098;-61
2024/03/03 09:32:03;;;;;;;0.10;0.10;;;;;;;7.38;73.73;99424.09;7360757;19;20045;-61
2024/03/03 09:34:29;;;;;;;0.10;0.10;;;;;;;7.57;73.55;99444.31;7362526;19;20025;-62
2024/03/03 09:36:54;;;;;;;0.10;0.10;;;;;;;7.51;73.19;99435.81;7358509;19;20007;-62
2024/03/03 09:39:20;;;;;;;0.13;0.13;;;;;;;7.49;73.41;99421.16;7361470;19;20889;-61
2024/03/03 09:41:49;;;;;;;0.00;0.00;;;;;;;7.63;73.05;99438.94;7361758;19;20093;-62
2024/03/03 09:44:17;;;;;;;0.10;0.10;;;;;;;7.70;73.41;99445.63;7334704;19;20022;-61
2024/03/03 09:46:44;;;;;;;0.10;0.10;;;;;;;7.79;73.86;99440.16;7362226;19;20035;-62
2024/03/03 09:49:16;;;;;;;0.10;0.10;;;;;;;8.04;73.93;99443.66;7364052;19;20014;-62
2024/03/03 09:51:45;;;;;;;0.10;0.10;;;;;;;8.32;73.98;99450.56;7362044;19;20363;-62
2024/03/03 09:54:13;;;;;;;0.10;0.10;;;;;;;8.65;73.76;99445.13;7360165;19;20017;-62
2024/03/03 09:56:43;;;;;;;0.10;0.10;;;;;;;9.00;72.88;99438.66;7359413;19;20041;-63
2024/03/03 09:59:10;;;;;;;0.10;0.10;;;;;;;9.44;72.01;99451.81;7363245;19;20468;-63
2024/03/03 10:01:38;;;;;;;0.10;0.10;;;;;;;9.90;71.66;99450.03;7356066;19;20018;-63
2024/03/03 10:04:06;;;;;;;0.10;0.10;;;;;;;10.28;71.07;99448.47;7361479;19;20897;-64
2024/03/03 10:06:35;;;;;;;0.10;0.10;;;;;;;10.65;70.24;99459.09;7357118;19;20010;-63
2024/03/03 10:09:04;;;;;;;0.10;0.10;;;;;;;10.89;69.11;99454.53;7367213;19;20024;-62
2024/03/03 10:11:32;;;;;;;0.13;0.13;;;;;;;11.40;68.44;99478.41;7366808;19;20569;-62
2024/03/03 10:13:58;;;;;;;0.10;0.10;;;;;;;11.64;67.71;99466.81;7369531;19;20033;-63
2024/03/03 10:16:25;;;;;;;0.10;0.10;;;;;;;11.97;66.72;99484.50;7364418;19;20003;-62
2024/03/03 10:19:02;;;;;;;0.10;0.10;;;;;;;12.29;67.82;99493.41;7367029;19;20031;-63
2024/03/03 10:21:37;;;;;;;0.10;0.10;;;;;;;12.35;66.67;99500.94;7368137;19;20014;-62
2024/03/03 10:24:23;;;;;;;0.10;0.10;;;;;;;12.37;67.18;99498.28;7377015;19;20066;-61
2024/03/03 10:26:50;;;;;;;0.10;0.10;;;;;;;12.22;65.78;99499.03;7370884;19;20006;-62
2024/03/03 10:29:27;;;;;;;0.10;0.10;;;;;;;12.20;66.94;99504.31;7369271;19;20014;-62
2024/03/03 10:31:53;;;;;;;0.10;0.10;;;;;;;12.16;65.90;99510.59;7365537;19;20022;-63
2024/03/03 10:34:20;;;;;;;0.10;0.10;;;;;;;12.25;66.13;99504.09;7367473;19;20456;-63
2024/03/03 10:36:47;;;;;;;0.10;0.10;;;;;;;12.30;66.07;99507.34;7368449;19;20469;-62
2024/03/03 10:39:14;;;;;;;0.10;0.10;;;;;;;12.40;66.06;99513.81;7369866;19;20355;-63
2024/03/03 10:41:40;;;;;;;;;;;;;;;12.75;70.23;99519.91;7368440;19;21592;-63
2024/03/03 10:44:07;;;;;;;0.10;0.10;;;;;;;12.83;65.51;99532.63;7365326;19;19979;-63
2024/03/03 10:46:34;;;;;;;0.10;0.10;;;;;;;12.98;65.17;99537.09;7363713;19;20018;-63
2024/03/03 10:49:00;;;;;;;0.10;0.10;;;;;;;13.07;64.56;99533.13;7366532;19;20006;-63
2024/03/03 10:51:26;;;;;;;0.10;0.10;;;;;;;13.23;64.31;99542.81;7367838;19;20014;-62
2024/03/03 10:53:53;;;;;;;0.10;0.10;;;;;;;13.43;65.28;99533.03;7366553;19;20011;-63
2024/03/03 10:56:20;;;;;;;0.10;0.10;;;;;;;13.64;63.72;99536.28;7365730;19;20014;-63
2024/03/03 10:58:47;;;;;;;0.10;0.10;;;;;;;13.91;64.34;99531.31;7368561;19;20033;-63
2024/03/03 11:01:16;;;;;;;0.10;0.10;;;;;;;14.19;63.06;99520.09;7363389;19;20059;-63
2024/03/03 11:03:52;;;;;;;0.10;0.10;;;;;;;14.50;63.92;99527.16;7368939;19;20011;-63
2024/03/03 11:06:18;;;;;;;0.20;0.20;;;;;;;14.70;61.97;99529.47;7365057;19;20112;-63
2024/03/03 11:08:52;;;;;;;0.10;0.10;;;;;;;14.95;61.10;99522.72;7367625;19;20074;-63
2024/03/03 11:11:24;;;;;;;0.15;0.15;;;;;;;15.32;61.87;99530.13;7365884;19;20677;-63
2024/03/03 11:14:13;;;;;;;0.20;0.20;;;;;;;15.68;63.27;99518.28;7366958;19;20054;-63
2024/03/03 11:16:44;;;;;;;0.10;0.10;;;;;;;15.93;60.82;99527.28;7361111;19;20098;-63
2024/03/03 11:19:15;;;;;;;0.10;0.10;;;;;;;16.22;59.81;99517.50;7369489;19;20018;-63
2024/03/03 11:22:05;;;;;;;0.10;0.10;;;;;;;16.56;59.38;99539.84;7359989;19;20010;-63
2024/03/03 11:24:30;;;;;;;0.10;0.10;;;;;;;16.78;57.96;99527.00;7367028;19;20013;-63
2024/03/03 11:27:08;;;;;;;0.10;0.10;;;;;;;17.06;59.81;99525.09;7366201;19;20074;-62
2024/03/03 11:29:34;;;;;;;0.10;0.10;;;;;;;17.26;56.66;99527.22;7367276;19;20015;-63
2024/03/03 11:32:02;;;;;;;0.10;0.10;;;;;;;17.48;56.24;99526.56;7353229;19;20017;-64
2024/03/03 11:34:28;;;;;;;0.10;0.10;;;;;;;17.68;56.83;99526.97;7361042;19;20029;-63
2024/03/03 11:36:55;;;;;;;0.10;0.10;;;;;;;17.89;55.35;99526.34;7366000;19;20537;-63
2024/03/03 11:39:22;;;;;;;0.10;0.10;;;;;;;18.12;55.91;99526.47;7365286;19;20486;-63
2024/03/03 11:41:47;;;;;;;0.20;0.20;;;;;;;18.34;55.23;99531.84;7365996;19;20006;-63